« Back
NWS Peachtree City, Ga » Text Product » ATL Terminal Aerodrome Forecast


Printer-friendly Version
Current Version              Previous Versions:   1  2  3  4  5  6  7  8  9  

Terminal Aerodrome Forecast

576
FTUS42 KFFC 112338
TAFATL
TAF
KATL 112338Z 1200/1306 28005KT P6SM FEW100
     FM120200 02004KT P6SM BKN100
     FM121000 06005KT P6SM BKN030
     FM121500 07005KT P6SM BKN025
     FM121800 30010KT P6SM BKN030
     FM122100 27010G20KT P6SM SCT030
     FM130400 32012G22KT P6SM SCT020=



USA.gov is the U.S. government's official web portal to all federal, state and local government web resources and services.